createdAt,value
2019-01-31T00:05:59.640Z,29.27
2019-01-31T00:11:16.022Z,30.10
2019-01-31T00:17:07.296Z,31.50
2019-01-31T00:23:02.406Z,30.87
2019-01-31T00:28:45.453Z,29.77
2019-01-31T00:34:18.422Z,29.93
2019-01-31T00:40:08.442Z,29.27
2019-01-31T00:45:47.682Z,29.43
2019-01-31T00:51:01.805Z,29.50
2019-01-31T00:56:48.533Z,30.70
2019-01-31T01:02:51.313Z,31.07
2019-01-31T01:08:22.099Z,29.80
2019-01-31T01:13:38.098Z,29.73
2019-01-31T01:19:39.173Z,30.57
2019-01-31T01:25:29.908Z,29.43
2019-01-31T01:30:58.303Z,28.73
2019-01-31T01:36:11.545Z,29.83
2019-01-31T01:42:06.455Z,26.47
2019-01-31T01:47:21.923Z,30.00
2019-01-31T01:53:07.947Z,28.33
2019-01-31T01:58:29.530Z,28.40
2019-01-31T02:04:24.716Z,27.53
2019-01-31T02:10:26.034Z,28.83
2019-01-31T02:16:13.304Z,28.53
2019-01-31T02:22:24.457Z,28.33
2019-01-31T02:28:13.671Z,28.60
2019-01-31T02:34:22.164Z,28.40
2019-01-31T02:40:09.886Z,28.80
2019-01-31T02:46:06.104Z,27.47
2019-01-31T02:51:47.986Z,28.27
2019-01-31T02:57:27.675Z,28.13
2019-01-31T03:02:54.189Z,28.10
2019-01-31T03:08:26.292Z,27.60
2019-01-31T03:14:09.904Z,26.57
2019-01-31T03:19:55.847Z,26.93
2019-01-31T03:25:36.411Z,26.13
2019-01-31T03:31:14.476Z,26.30
2019-01-31T03:36:52.563Z,25.43
2019-01-31T03:43:11.792Z,26.47
2019-01-31T03:48:57.383Z,25.63
2019-01-31T03:55:07.208Z,25.93
2019-01-31T04:00:42.548Z,26.73
2019-01-31T04:06:11.041Z,24.70
2019-01-31T04:11:13.536Z,24.97
2019-01-31T04:16:15.830Z,24.60
2019-01-31T04:21:18.106Z,24.60
2019-01-31T04:26:20.836Z,25.63
2019-01-31T04:31:23.703Z,23.70
2019-01-31T04:36:27.193Z,25.63
2019-01-31T04:41:30.187Z,25.47
2019-01-31T04:46:32.976Z,24.23
2019-01-31T04:51:36.539Z,24.60
2019-01-31T04:56:39.087Z,24.27
2019-01-31T05:01:41.369Z,24.50
2019-01-31T05:06:43.629Z,24.83
2019-01-31T05:11:46.552Z,25.00
2019-01-31T05:16:49.031Z,25.30
2019-01-31T05:21:51.845Z,25.23
2019-01-31T05:26:54.931Z,22.87
2019-01-31T05:31:59.388Z,23.27
2019-01-31T05:37:02.097Z,24.50
2019-01-31T05:42:05.198Z,23.20
2019-01-31T05:47:09.876Z,22.17
2019-01-31T05:52:12.220Z,22.90
2019-01-31T05:57:14.512Z,23.03
2019-01-31T06:02:16.764Z,23.47
2019-01-31T06:07:19.263Z,21.73
2019-01-31T06:12:21.601Z,22.40
2019-01-31T06:17:23.930Z,22.43
2019-01-31T06:22:26.328Z,21.87
2019-01-31T06:27:28.721Z,21.80
2019-01-31T06:32:30.971Z,22.17
2019-01-31T06:37:33.702Z,21.17
2019-01-31T06:42:36.441Z,21.77
2019-01-31T06:47:38.935Z,21.13
2019-01-31T06:52:42.031Z,21.23
2019-01-31T06:57:44.213Z,19.83
2019-01-31T07:02:47.534Z,20.63
2019-01-31T07:07:52.078Z,20.50
2019-01-31T07:12:55.188Z,20.77
2019-01-31T07:17:57.722Z,19.93
2019-01-31T07:23:00.019Z,20.43
2019-01-31T07:28:02.963Z,22.17
2019-01-31T07:33:05.228Z,20.87
2019-01-31T07:38:07.826Z,21.60
2019-01-31T07:43:10.874Z,22.43
2019-01-31T07:48:13.178Z,23.50
2019-01-31T07:53:15.747Z,22.70
2019-01-31T07:58:20.492Z,22.93
2019-01-31T08:03:22.268Z,23.13
2019-01-31T08:08:24.879Z,21.90
2019-01-31T08:13:27.346Z,23.07
2019-01-31T08:18:29.654Z,23.50
2019-01-31T08:23:32.144Z,22.73
2019-01-31T08:28:34.681Z,22.60
2019-01-31T08:33:37.023Z,23.20
2019-01-31T08:38:39.291Z,23.27
2019-01-31T08:43:42.293Z,24.07
2019-01-31T08:48:45.216Z,23.00
2019-01-31T08:53:47.457Z,21.50
2019-01-31T08:58:49.693Z,22.73
2019-01-31T09:03:51.949Z,23.60
2019-01-31T09:08:54.633Z,22.60
2019-01-31T09:13:57.402Z,23.80
2019-01-31T09:18:59.690Z,23.93
2019-01-31T09:24:50.147Z,23.87
2019-01-31T09:30:15.745Z,23.07
2019-01-31T09:35:31.363Z,23.77
2019-01-31T09:41:16.655Z,22.53
2019-01-31T09:46:31.987Z,23.37
2019-01-31T09:52:27.915Z,23.63
2019-01-31T09:58:22.063Z,23.13
2019-01-31T10:04:15.426Z,22.40
2019-01-31T10:10:05.295Z,20.83
2019-01-31T10:15:40.942Z,21.03
2019-01-31T10:21:41.053Z,18.40
2019-01-31T10:27:15.794Z,18.70
2019-01-31T10:33:18.197Z,16.37
2019-01-31T10:38:48.130Z,15.37
2019-01-31T10:44:59.816Z,16.23
2019-01-31T10:50:49.150Z,14.57
2019-01-31T10:56:45.196Z,13.67
2019-01-31T11:02:40.421Z,14.87
2019-01-31T11:08:05.589Z,15.03
2019-01-31T11:13:59.812Z,13.73
2019-01-31T11:19:36.136Z,14.37
2019-01-31T11:25:14.380Z,13.33
2019-01-31T11:30:41.577Z,13.50
2019-01-31T11:37:08.821Z,12.53
2019-01-31T11:43:17.039Z,13.70
2019-01-31T11:48:37.614Z,14.03
2019-01-31T11:54:26.933Z,11.13
2019-01-31T11:59:29.264Z,11.33
2019-01-31T12:04:31.784Z,12.07
2019-01-31T12:09:38.678Z,12.53
2019-01-31T12:21:03.636Z,12.17
2019-01-31T12:26:06.385Z,11.77
2019-01-31T12:31:09.706Z,11.40
2019-01-31T12:36:12.712Z,11.90
2019-01-31T12:41:15.484Z,12.10
2019-01-31T12:46:18.298Z,10.90
2019-01-31T12:51:21.193Z,12.40
2019-01-31T12:56:23.735Z,13.13
2019-01-31T13:01:26.294Z,12.77
2019-01-31T13:13:18.383Z,13.03
2019-01-31T13:18:21.179Z,13.23
2019-01-31T13:23:24.094Z,13.00
2019-01-31T13:28:26.614Z,13.63
2019-01-31T13:33:29.579Z,14.53
2019-01-31T13:38:34.542Z,13.70
2019-01-31T13:43:37.632Z,13.63
2019-01-31T13:48:40.120Z,13.10
2019-01-31T13:53:42.690Z,14.13
2019-01-31T13:58:55.420Z,13.30
2019-01-31T14:03:58.065Z,12.33
2019-01-31T14:09:00.992Z,12.53
2019-01-31T14:14:09.228Z,11.70
2019-01-31T14:19:09.716Z,12.83
2019-01-31T14:24:12.507Z,11.87
2019-01-31T14:29:15.119Z,12.07
2019-01-31T14:34:30.213Z,11.93
2019-01-31T14:39:32.496Z,11.70
2019-01-31T14:44:35.268Z,12.30
2019-01-31T14:49:39.302Z,13.40
2019-01-31T14:54:42.128Z,13.77
2019-01-31T14:59:44.380Z,14.20
2019-01-31T15:04:46.629Z,14.27
2019-01-31T15:09:48.915Z,13.87
2019-01-31T15:14:51.286Z,14.57
2019-01-31T15:19:53.737Z,13.13
2019-01-31T15:24:56.490Z,13.37
2019-01-31T15:29:59.261Z,13.47
2019-01-31T15:35:02.007Z,12.47
2019-01-31T15:40:10.467Z,13.47
2019-01-31T15:45:13.004Z,12.57
2019-01-31T15:50:15.727Z,12.97
2019-01-31T15:55:19.350Z,14.93
2019-01-31T16:00:38.641Z,19.47
2019-01-31T16:05:41.161Z,20.20
2019-01-31T16:10:44.125Z,21.20
2019-01-31T16:15:47.662Z,20.90
2019-01-31T16:20:50.737Z,21.77
2019-01-31T16:25:53.781Z,21.63
2019-01-31T16:30:56.363Z,20.47
2019-01-31T16:35:58.740Z,21.83
2019-01-31T16:41:01.218Z,20.80
2019-01-31T16:46:09.882Z,21.83
2019-01-31T16:51:12.484Z,21.30
2019-01-31T16:56:16.186Z,21.07
2019-01-31T17:01:19.029Z,22.00
2019-01-31T17:06:24.185Z,22.07
2019-01-31T17:11:26.746Z,22.90
2019-01-31T17:16:29.645Z,22.57
2019-01-31T17:21:32.075Z,22.77
2019-01-31T17:26:34.334Z,21.83
2019-01-31T17:31:36.905Z,23.47
2019-01-31T17:36:39.125Z,23.53
2019-01-31T17:41:41.345Z,24.77
2019-01-31T17:46:43.539Z,24.10
2019-01-31T17:51:46.375Z,24.03
2019-01-31T17:56:53.397Z,24.50
2019-01-31T18:01:56.128Z,25.60
2019-01-31T18:06:58.874Z,25.37
2019-01-31T18:12:21.004Z,26.40
2019-01-31T18:17:23.524Z,26.80
2019-01-31T18:22:26.949Z,26.80
2019-01-31T18:27:29.438Z,27.23
2019-01-31T18:32:32.296Z,27.87
2019-01-31T18:37:35.544Z,29.33
2019-01-31T18:42:38.426Z,29.80
2019-01-31T18:47:42.032Z,30.73
2019-01-31T18:52:45.717Z,30.03
2019-01-31T18:57:48.356Z,31.60
2019-01-31T19:02:51.383Z,31.40
2019-01-31T19:07:54.262Z,30.97
2019-01-31T19:12:58.624Z,31.90
2019-01-31T19:18:06.022Z,31.13
2019-01-31T19:23:08.101Z,31.47
2019-01-31T19:28:13.100Z,31.17
2019-01-31T19:33:17.026Z,31.10
2019-01-31T19:38:20.018Z,32.30
2019-01-31T19:43:25.291Z,31.13
2019-01-31T19:48:30.103Z,37.00
2019-01-31T19:53:32.882Z,32.57
2019-01-31T19:58:35.266Z,31.50
2019-01-31T20:03:37.450Z,32.53
2019-01-31T20:08:42.482Z,34.00
2019-01-31T20:13:45.027Z,35.00
2019-01-31T20:18:47.540Z,35.00
2019-01-31T20:23:49.794Z,34.37
2019-01-31T20:28:53.614Z,34.07
2019-01-31T20:33:56.367Z,34.20
2019-01-31T20:39:06.955Z,35.13
2019-01-31T20:44:11.139Z,35.03
2019-01-31T20:49:13.952Z,35.93
2019-01-31T20:54:16.127Z,36.03
2019-01-31T20:59:18.731Z,36.37
2019-01-31T21:04:21.747Z,35.37
2019-01-31T21:09:24.384Z,36.10
2019-01-31T21:14:27.343Z,35.10
2019-01-31T21:19:30.684Z,38.13
2019-01-31T21:24:33.211Z,35.73
2019-01-31T21:29:35.590Z,37.27
2019-01-31T21:34:37.855Z,37.53
2019-01-31T21:39:40.037Z,38.30
2019-01-31T21:44:42.453Z,37.63
2019-01-31T21:49:45.036Z,38.83
2019-01-31T21:54:48.000Z,38.57
2019-01-31T21:59:50.779Z,39.80
2019-01-31T22:04:53.685Z,38.47
2019-01-31T22:09:56.186Z,40.87
2019-01-31T22:14:58.783Z,41.17
2019-01-31T22:20:02.095Z,42.57
2019-01-31T22:25:07.544Z,41.23
2019-01-31T22:30:17.867Z,42.87
2019-01-31T22:35:21.031Z,42.63
2019-01-31T22:40:23.313Z,43.03
2019-01-31T22:45:25.832Z,40.63
2019-01-31T22:50:28.042Z,43.07
2019-01-31T22:55:30.572Z,44.13
2019-01-31T23:01:23.765Z,42.67
2019-01-31T23:06:27.058Z,44.47
2019-01-31T23:11:29.455Z,43.47
2019-01-31T23:16:32.047Z,44.60
2019-01-31T23:21:35.393Z,43.87
2019-01-31T23:26:38.371Z,42.37
2019-01-31T23:31:41.643Z,43.67
2019-01-31T23:36:44.465Z,43.90
2019-01-31T23:41:47.080Z,43.37
2019-01-31T23:46:49.332Z,42.00
2019-01-31T23:51:52.740Z,44.23
2019-01-31T23:56:55.259Z,43.50
